Time;durP1;ratioP1;P1;durP2;ratioP2;P2;SDS_P1;SDS_P2;PMS_P1;PMS_P2;Temp;Humidity;BMP_temperature;BMP_pressure;BME280_temperature;BME280_humidity;BME280_pressure;Samples;Min_cycle;Max_cycle;Signal;HPM_P1;HPM_P2
2022/07/15 00:01:34;;;;;;;;;;;;;;;16.21;61.71;99655.03;4995957;28;815;-66
2022/07/15 00:04:00;;;;;;;;;;;;;;;16.23;61.95;99658.16;4978144;28;1515;-66
2022/07/15 00:06:27;;;;;;;;;;;;;;;16.25;61.72;99649.34;4995925;28;853;-66
2022/07/15 00:11:58;;;;;;;;;;;;;;;16.26;61.57;99659.31;4995588;28;605;-66
2022/07/15 00:14:23;;;;;;;;;;;;;;;16.25;61.91;99657.72;4995368;28;914;-67
2022/07/15 00:16:50;;;;;;;;;;;;;;;16.22;61.84;99651.03;4995470;28;850;-66
2022/07/15 00:19:16;;;;;;;;;;;;;;;16.20;62.27;99652.72;4995507;28;847;-66
2022/07/15 00:21:43;;;;;;;;;;;;;;;16.26;62.21;99648.16;4995308;28;912;-66
2022/07/15 00:24:09;;;;;;;;;;;;;;;16.28;62.42;99651.25;4995357;28;803;-66
2022/07/15 00:26:36;;;;;;;;;;;;;;;16.29;62.57;99647.25;4995227;28;926;-67
2022/07/15 00:29:02;;;;;;;;;;;;;;;16.28;62.75;99646.47;4995076;28;1931;-67
2022/07/15 00:31:31;;;;;;;;;;;;;;;16.27;62.93;99641.34;4995111;28;997;-67
2022/07/15 00:33:57;;;;;;;;;;;;;;;16.27;62.87;99649.69;4995119;28;823;-66
2022/07/15 00:36:24;;;;;;;;;;;;;;;16.27;63.19;99647.69;4977489;28;1221;-68
2022/07/15 00:38:50;;;;;;;;;;;;;;;16.30;62.97;99640.44;4995144;28;859;-66
2022/07/15 00:41:17;;;;;;;;;;;;;;;16.31;63.12;99642.00;4995213;28;1144;-66
2022/07/15 00:55:59;;;;;;;;;;;;;;;16.15;63.84;99633.72;4994466;28;613;-66
2022/07/15 00:58:26;;;;;;;;;;;;;;;16.08;64.16;99631.94;4994736;28;910;-66
2022/07/15 01:00:54;;;;;;;;;;;;;;;16.04;64.13;99628.47;4994990;28;854;-66
2022/07/15 01:03:20;;;;;;;;;;;;;;;16.04;64.33;99620.88;4994559;28;835;-67
2022/07/15 01:05:48;;;;;;;;;;;;;;;16.08;64.25;99632.72;4994675;28;874;-66
2022/07/15 01:08:17;;;;;;;;;;;;;;;16.04;64.30;99625.69;4994366;28;882;-66
2022/07/15 01:10:44;;;;;;;;;;;;;;;16.09;64.23;99631.50;4994462;28;1959;-66
2022/07/15 01:13:11;;;;;;;;;;;;;;;16.15;64.37;99628.16;4994356;28;886;-67
2022/07/15 01:15:37;;;;;;;;;;;;;;;16.18;64.32;99624.50;4994650;28;937;-67
2022/07/15 01:18:04;;;;;;;;;;;;;;;16.21;64.28;99629.16;4994302;28;850;-67
2022/07/15 01:20:31;;;;;;;;;;;;;;;16.20;64.77;99620.03;4994456;28;807;-67
2022/07/15 01:22:59;;;;;;;;;;;;;;;16.18;64.93;99616.91;4994170;28;787;-67
2022/07/15 01:25:26;;;;;;;;;;;;;;;16.13;65.20;99623.03;4994125;28;1025;-67
2022/07/15 01:27:52;;;;;;;;;;;;;;;16.10;65.21;99615.56;4994177;28;815;-66
2022/07/15 01:30:19;;;;;;;;;;;;;;;16.10;65.26;99618.34;4994084;28;1878;-66
2022/07/15 01:32:46;;;;;;;;;;;;;;;16.03;65.49;99613.78;4994340;28;1005;-67
2022/07/15 01:35:12;;;;;;;;;;;;;;;15.98;65.70;99605.97;4994019;28;814;-67
2022/07/15 01:37:38;;;;;;;;;;;;;;;15.98;65.84;99608.75;4994002;28;839;-67
2022/07/15 01:40:11;;;;;;;;;;;;;;;15.94;66.08;99605.28;4993663;28;1524;-67
2022/07/15 01:42:38;;;;;;;;;;;;;;;15.91;66.18;99600.59;4993964;28;839;-67
2022/07/15 01:57:15;;;;;;;;;;;;;;;15.79;67.32;99607.72;4993938;28;713;-67
2022/07/15 02:11:52;;;;;;;;;;;;;;;15.81;67.69;99593.31;4993658;28;700;-67
2022/07/15 02:14:19;;;;;;;;;;;;;;;15.81;67.44;99588.56;4993636;28;827;-67
2022/07/15 02:16:45;;;;;;;;;;;;;;;15.79;67.60;99593.78;4993399;28;803;-67
2022/07/15 02:19:11;;;;;;;;;;;;;;;15.73;67.47;99594.78;4993453;28;795;-67
2022/07/15 02:21:37;;;;;;;;;;;;;;;15.68;67.56;99598.84;4993069;28;916;-67
2022/07/15 02:36:15;;;;;;;;;;;;;;;15.61;67.38;99599.06;4993180;28;606;-67
2022/07/15 02:38:42;;;;;;;;;;;;;;;15.62;67.21;99600.59;4992835;28;788;-67
2022/07/15 02:41:12;;;;;;;;;;;;;;;15.63;67.01;99602.97;4992532;28;1436;-67
2022/07/15 02:43:41;;;;;;;;;;;;;;;15.63;67.10;99600.16;4992738;28;890;-67
2022/07/15 02:46:09;;;;;;;;;;;;;;;15.63;67.01;99593.81;4992593;28;815;-67
2022/07/15 02:48:36;;;;;;;;;;;;;;;15.64;66.90;99598.16;4992623;28;1987;-67
2022/07/15 02:51:03;;;;;;;;;;;;;;;15.68;66.60;99588.50;4992648;28;882;-67
2022/07/15 02:53:30;;;;;;;;;;;;;;;15.74;66.15;99590.75;4992515;28;850;-67
2022/07/15 02:55:58;;;;;;;;;;;;;;;15.77;65.96;99595.44;4992799;28;835;-67
2022/07/15 02:58:25;;;;;;;;;;;;;;;15.76;66.16;99594.66;4975518;28;806;-67
2022/07/15 03:00:52;;;;;;;;;;;;;;;15.75;66.06;99600.69;4992827;28;725;-67
2022/07/15 03:03:18;;;;;;;;;;;;;;;15.79;65.73;99587.41;4992423;28;910;-67
2022/07/15 03:05:45;;;;;;;;;;;;;;;15.82;65.69;99587.31;4992366;28;897;-67
2022/07/15 03:08:11;;;;;;;;;;;;;;;15.86;65.54;99588.00;4992394;28;874;-66
2022/07/15 03:10:38;;;;;;;;;;;;;;;15.90;65.42;99588.66;4992259;28;1953;-67
2022/07/15 03:13:04;;;;;;;;;;;;;;;15.97;65.22;99586.91;4992325;28;909;-67
2022/07/15 03:15:31;;;;;;;;;;;;;;;16.05;64.83;99591.03;4992160;28;854;-67
2022/07/15 03:21:00;;;;;;;;;;;;;;;16.05;64.74;99594.59;4992272;28;610;-67
2022/07/15 03:26:29;;;;;;;;;;;;;;;16.15;64.52;99589.91;4992239;28;609;-67
2022/07/15 03:28:57;;;;;;;;;;;;;;;16.17;64.91;99595.03;4992087;28;1914;-67
2022/07/15 03:31:23;;;;;;;;;;;;;;;16.24;64.93;99584.44;4992075;28;1021;-67
2022/07/15 03:33:50;;;;;;;;;;;;;;;16.36;64.84;99584.88;4992143;28;867;-67
2022/07/15 03:36:16;;;;;;;;;;;;;;;16.46;64.52;99583.75;4992155;28;876;-67
2022/07/15 03:38:42;;;;;;;;;;;;;;;16.53;64.61;99584.28;4992136;28;791;-67
2022/07/15 03:41:09;;;;;;;;;;;;;;;16.64;64.13;99581.19;4992119;28;1416;-67
2022/07/15 03:43:35;;;;;;;;;;;;;;;16.84;63.70;99591.31;4992300;28;843;-67
2022/07/15 03:46:02;;;;;;;;;;;;;;;17.08;63.18;99586.88;4992132;28;835;-66
2022/07/15 03:48:28;;;;;;;;;;;;;;;17.19;62.78;99589.28;4992165;28;811;-67
2022/07/15 03:50:55;;;;;;;;;;;;;;;17.17;62.87;99588.94;4992216;28;1977;-67
2022/07/15 03:53:21;;;;;;;;;;;;;;;17.17;63.00;99593.75;4991875;28;970;-67
2022/07/15 03:55:48;;;;;;;;;;;;;;;17.19;62.87;99594.09;4991916;28;888;-66
2022/07/15 03:58:14;;;;;;;;;;;;;;;17.23;63.04;99591.97;4992172;28;831;-67
2022/07/15 04:00:41;;;;;;;;;;;;;;;17.30;62.63;99591.69;4991877;28;884;-66
2022/07/15 04:03:08;;;;;;;;;;;;;;;17.40;62.05;99586.97;4991810;28;878;-67
2022/07/15 04:05:35;;;;;;;;;;;;;;;17.50;61.77;99586.56;4991862;28;824;-69
2022/07/15 04:08:01;;;;;;;;;;;;;;;17.61;61.73;99579.81;4991831;28;816;-67
2022/07/15 04:10:28;;;;;;;;;;;;;;;17.71;61.35;99585.00;4991702;28;1886;-66
2022/07/15 04:12:54;;;;;;;;;;;;;;;17.82;61.12;99595.00;4991722;28;1207;-67
2022/07/15 04:15:21;;;;;;;;;;;;;;;17.91;60.93;99592.28;4991702;28;871;-66
2022/07/15 04:17:48;;;;;;;;;;;;;;;18.01;60.72;99584.69;4991707;28;867;-66
2022/07/15 04:20:15;;;;;;;;;;;;;;;18.10;60.21;99588.34;4991717;28;804;-66
2022/07/15 04:22:43;;;;;;;;;;;;;;;18.20;60.10;99582.75;4974273;28;1189;-66
2022/07/15 04:25:11;;;;;;;;;;;;;;;18.33;59.92;99587.03;4991573;28;839;-66
2022/07/15 04:27:38;;;;;;;;;;;;;;;18.50;60.00;99586.78;4991699;28;862;-66
2022/07/15 04:30:05;;;;;;;;;;;;;;;18.64;59.46;99588.19;4991946;28;1906;-66
2022/07/15 04:32:32;;;;;;;;;;;;;;;18.76;59.23;99590.09;4995412;28;925;-66
2022/07/15 04:34:58;;;;;;;;;;;;;;;18.92;58.99;99587.00;4995096;28;906;-66
2022/07/15 04:37:26;;;;;;;;;;;;;;;19.07;58.75;99595.59;4995100;28;823;-66
2022/07/15 04:39:52;;;;;;;;;;;;;;;19.25;58.51;99599.66;4994855;28;1241;-66
2022/07/15 04:42:18;;;;;;;;;;;;;;;19.37;58.64;99601.50;4995047;28;819;-65
2022/07/15 04:44:45;;;;;;;;;;;;;;;19.45;58.72;99596.38;4994793;28;878;-65
2022/07/15 04:47:11;;;;;;;;;;;;;;;19.50;58.83;99598.53;4995140;28;788;-66
2022/07/15 04:52:24;;;;;;;;;;;;;;;19.50;58.64;99601.31;4994877;28;622;-65
2022/07/15 04:54:54;;;;;;;;;;;;;;;19.58;58.51;99605.38;4994817;28;818;-65
2022/07/15 04:57:20;;;;;;;;;;;;;;;19.69;58.36;99604.88;4994627;28;907;-65
2022/07/15 04:59:47;;;;;;;;;;;;;;;19.78;58.30;99597.28;4994691;28;921;-65
2022/07/15 05:02:14;;;;;;;;;;;;;;;19.95;58.34;99600.50;4994604;28;823;-65
2022/07/15 05:04:40;;;;;;;;;;;;;;;20.13;58.15;99602.47;4977118;28;1268;-65
2022/07/15 05:07:07;;;;;;;;;;;;;;;20.33;57.79;99604.72;4994535;28;803;-65
2022/07/15 05:09:34;;;;;;;;;;;;;;;20.48;57.36;99590.75;4994484;28;1941;-65
2022/07/15 05:12:00;;;;;;;;;;;;;;;20.70;56.38;99595.38;4994438;28;858;-65
2022/07/15 05:14:27;;;;;;;;;;;;;;;21.03;55.62;99594.50;4994406;28;842;-64
2022/07/15 05:16:54;;;;;;;;;;;;;;;21.39;54.97;99596.22;4994398;28;826;-64
2022/07/15 05:19:21;;;;;;;;;;;;;;;21.75;54.63;99595.13;4994620;28;961;-64
2022/07/15 05:21:48;;;;;;;;;;;;;;;22.11;54.38;99598.03;4994245;28;1225;-64
2022/07/15 05:24:14;;;;;;;;;;;;;;;22.45;53.58;99595.72;4994380;28;811;-63
2022/07/15 05:26:41;;;;;;;;;;;;;;;22.72;53.75;99592.53;4994401;28;882;-63
2022/07/15 05:29:08;;;;;;;;;;;;;;;23.00;53.38;99597.75;4994013;28;1882;-64
2022/07/15 05:31:34;;;;;;;;;;;;;;;23.23;52.83;99599.59;4994172;28;914;-63
2022/07/15 05:34:01;;;;;;;;;;;;;;;23.38;52.58;99599.50;4994086;28;839;-63
2022/07/15 05:36:28;;;;;;;;;;;;;;;23.56;52.67;99604.06;4994135;28;960;-61
2022/07/15 05:38:54;;;;;;;;;;;;;;;23.73;52.51;99607.06;4993992;28;867;-61
2022/07/15 05:41:20;;;;;;;;;;;;;;;23.95;51.96;99597.25;4993377;28;1336;-61
2022/07/15 05:43:46;;;;;;;;;;;;;;;24.33;50.44;99592.41;4994041;28;811;-61
2022/07/15 05:46:13;;;;;;;;;;;;;;;24.79;49.64;99591.41;4993855;28;843;-60
2022/07/15 05:48:41;;;;;;;;;;;;;;;25.19;48.68;99587.47;4993668;28;1968;-61
2022/07/15 05:51:07;;;;;;;;;;;;;;;25.64;47.83;99581.94;4993735;28;920;-61
2022/07/15 05:53:34;;;;;;;;;;;;;;;25.99;47.52;99582.75;4993863;28;874;-61
2022/07/15 05:56:00;;;;;;;;;;;;;;;26.64;46.08;99579.59;4993661;28;838;-60
2022/07/15 05:58:27;;;;;;;;;;;;;;;27.70;44.34;99583.19;4993500;28;919;-60
2022/07/15 06:00:54;;;;;;;;;;;;;;;28.73;41.49;99580.22;4993457;28;851;-60
2022/07/15 06:03:20;;;;;;;;;;;;;;;29.45;40.06;99575.69;4993430;28;878;-60
2022/07/15 06:05:47;;;;;;;;;;;;;;;30.45;37.86;99580.28;4993687;28;842;-60
2022/07/15 06:08:14;;;;;;;;;;;;;;;30.92;36.79;99571.09;4993347;28;954;-60
2022/07/15 06:10:41;;;;;;;;;;;;;;;31.52;35.53;99580.19;4993379;28;2017;-60
2022/07/15 06:13:07;;;;;;;;;;;;;;;32.20;34.75;99578.53;4993236;28;815;-60
2022/07/15 06:15:34;;;;;;;;;;;;;;;32.92;34.54;99575.78;4993166;28;831;-60
2022/07/15 06:18:00;;;;;;;;;;;;;;;33.46;32.98;99569.50;4993239;28;827;-60
2022/07/15 06:20:27;;;;;;;;;;;;;;;33.83;31.96;99567.31;4993239;28;807;-60
2022/07/15 06:22:55;;;;;;;;;;;;;;;34.01;31.76;99571.88;4993021;28;910;-60
2022/07/15 06:25:21;;;;;;;;;;;;;;;34.71;30.24;99564.75;4992962;28;999;-60
2022/07/15 06:27:48;;;;;;;;;;;;;;;35.04;29.91;99570.59;4992921;28;907;-60
2022/07/15 06:30:15;;;;;;;;;;;;;;;35.55;29.34;99577.25;4993098;28;1953;-60
2022/07/15 06:32:42;;;;;;;;;;;;;;;36.07;28.40;99571.72;4993150;28;1028;-60
2022/07/15 06:35:09;;;;;;;;;;;;;;;36.14;27.72;99573.00;4975653;28;810;-61
2022/07/15 06:37:35;;;;;;;;;;;;;;;36.50;27.39;99560.22;4992833;28;894;-60
2022/07/15 06:40:02;;;;;;;;;;;;;;;36.91;25.85;99563.59;4992658;28;1562;-61
2022/07/15 06:42:28;;;;;;;;;;;;;;;36.90;25.82;99573.63;4992640;28;808;-61
2022/07/15 06:44:54;;;;;;;;;;;;;;;37.37;25.82;99571.69;4992953;28;847;-61
2022/07/15 06:47:21;;;;;;;;;;;;;;;37.69;24.15;99569.91;4975396;28;931;-61
2022/07/15 06:49:49;;;;;;;;;;;;;;;37.77;24.20;99573.44;4993085;28;1914;-61
2022/07/15 06:52:16;;;;;;;;;;;;;;;38.09;24.20;99568.69;4992504;28;850;-62
2022/07/15 06:54:43;;;;;;;;;;;;;;;38.33;23.23;99572.72;4992025;28;788;-62
2022/07/15 06:57:12;;;;;;;;;;;;;;;38.46;23.03;99565.75;4992595;28;890;-63
2022/07/15 06:59:38;;;;;;;;;;;;;;;38.14;23.20;99567.66;4975034;28;1412;-63
2022/07/15 07:02:05;;;;;;;;;;;;;;;37.85;22.39;99567.53;4992585;28;795;-62
2022/07/15 07:04:32;;;;;;;;;;;;;;;38.10;22.63;99562.31;4992357;28;1014;-62
2022/07/15 07:06:58;;;;;;;;;;;;;;;38.47;21.41;99565.09;4974969;28;1153;-62
2022/07/15 07:09:25;;;;;;;;;;;;;;;38.66;21.11;99561.50;4992273;28;1890;-62
2022/07/15 07:11:51;;;;;;;;;;;;;;;38.96;21.02;99554.41;4992387;28;866;-62
2022/07/15 07:14:18;;;;;;;;;;;;;;;39.06;21.17;99559.41;4992675;28;788;-62
2022/07/15 07:16:46;;;;;;;;;;;;;;;39.13;20.99;99552.69;4992677;28;929;-62
2022/07/15 07:19:13;;;;;;;;;;;;;;;39.32;20.34;99555.53;4992285;28;858;-62
2022/07/15 07:21:40;;;;;;;;;;;;;;;39.34;20.55;99549.13;4992196;28;834;-62
2022/07/15 07:24:07;;;;;;;;;;;;;;;39.46;19.90;99552.94;4992300;28;779;-62
2022/07/15 07:26:34;;;;;;;;;;;;;;;39.71;20.24;99555.44;4992102;28;910;-62
2022/07/15 07:29:01;;;;;;;;;;;;;;;39.78;20.01;99545.81;4992465;28;1890;-61
2022/07/15 07:31:28;;;;;;;;;;;;;;;39.64;20.81;99547.69;4992220;28;899;-61
2022/07/15 07:33:55;;;;;;;;;;;;;;;39.49;20.27;99545.91;4992086;28;903;-61
2022/07/15 07:36:22;;;;;;;;;;;;;;;39.40;20.33;99549.59;4992105;28;862;-61
2022/07/15 07:38:48;;;;;;;;;;;;;;;38.79;20.79;99554.50;4992157;28;839;-60
2022/07/15 07:41:15;;;;;;;;;;;;;;;38.33;20.28;99546.72;4991709;28;1226;-60
2022/07/15 07:43:42;;;;;;;;;;;;;;;38.57;20.84;99548.59;4992186;28;807;-60
2022/07/15 07:46:10;;;;;;;;;;;;;;;39.10;20.62;99540.22;4992119;28;883;-60
2022/07/15 07:48:38;;;;;;;;;;;;;;;39.15;20.76;99542.03;4992088;28;892;-61
2022/07/15 07:51:04;;;;;;;;;;;;;;;39.38;20.66;99540.75;4991873;28;1910;-60
2022/07/15 07:53:31;;;;;;;;;;;;;;;39.26;20.41;99545.66;4992125;28;931;-61
2022/07/15 07:55:57;;;;;;;;;;;;;;;39.29;21.03;99536.53;4992098;28;878;-61
2022/07/15 07:58:24;;;;;;;;;;;;;;;39.50;21.32;99547.44;4991961;28;823;-61
2022/07/15 08:00:55;;;;;;;;;;;;;;;39.80;20.73;99542.31;4992186;28;863;-61
2022/07/15 08:03:22;;;;;;;;;;;;;;;40.11;20.09;99536.50;4991763;28;893;-61
2022/07/15 08:05:48;;;;;;;;;;;;;;;40.14;20.03;99534.53;4977853;28;795;-61
2022/07/15 08:08:19;;;;;;;;;;;;;;;40.35;20.14;99534.56;4995621;28;807;-62
2022/07/15 08:10:47;;;;;;;;;;;;;;;40.26;19.45;99528.81;4995413;28;1868;-62
2022/07/15 08:13:15;;;;;;;;;;;;;;;40.06;20.38;99523.16;4995583;28;859;-62
2022/07/15 08:15:42;;;;;;;;;;;;;;;40.32;20.97;99523.47;4995448;28;791;-61
2022/07/15 08:18:08;;;;;;;;;;;;;;;40.63;20.61;99523.38;4995667;28;835;-61
2022/07/15 08:20:35;;;;;;;;;;;;;;;40.46;20.28;99523.63;4995653;28;847;-61
2022/07/15 08:23:03;;;;;;;;;;;;;;;40.33;19.95;99525.75;4995282;28;990;-61
2022/07/15 08:25:32;;;;;;;;;;;;;;;40.36;21.01;99520.84;4995335;28;823;-61
2022/07/15 08:27:59;;;;;;;;;;;;;;;40.42;20.23;99521.25;4995261;28;901;-61
2022/07/15 08:30:26;;;;;;;;;;;;;;;40.00;20.42;99516.94;4977653;28;1882;-61
2022/07/15 08:32:54;;;;;;;;;;;;;;;39.47;20.74;99525.53;4995597;28;900;-62
2022/07/15 08:35:22;;;;;;;;;;;;;;;38.91;21.82;99517.13;4995060;28;906;-61
2022/07/15 08:37:48;;;;;;;;;;;;;;;39.09;22.12;99520.59;4995038;28;967;-61
2022/07/15 08:40:15;;;;;;;;;;;;;;;39.16;21.83;99520.44;4994860;28;1440;-61
2022/07/15 08:42:43;;;;;;;;;;;;;;;39.18;21.32;99511.91;4995128;28;792;-62
2022/07/15 08:45:10;;;;;;;;;;;;;;;39.46;20.96;99518.25;4994907;28;887;-61
2022/07/15 08:47:37;;;;;;;;;;;;;;;39.85;22.16;99512.31;4977834;28;831;-61
2022/07/15 08:50:04;;;;;;;;;;;;;;;39.80;21.63;99517.03;4994844;28;1971;-60
2022/07/15 08:52:33;;;;;;;;;;;;;;;39.82;20.67;99522.19;4994832;28;827;-61
2022/07/15 08:54:59;;;;;;;;;;;;;;;39.21;20.54;99516.47;4994942;28;831;-61
2022/07/15 08:57:26;;;;;;;;;;;;;;;39.18;20.64;99517.69;4994739;28;810;-62
2022/07/15 08:59:53;;;;;;;;;;;;;;;39.30;20.96;99514.16;4994734;28;890;-61
2022/07/15 09:02:19;;;;;;;;;;;;;;;39.18;21.38;99514.81;4994648;28;855;-61
2022/07/15 09:05:04;;;;;;;;;;;;;;;38.90;20.77;99512.69;4994539;28;933;-61
2022/07/15 09:07:49;;;;;;;;;;;;;;;38.20;20.78;99524.84;4994566;28;1041;-61
2022/07/15 09:10:16;;;;;;;;;;;;;;;37.98;20.74;99510.22;4994386;28;1899;-61
2022/07/15 09:12:42;;;;;;;;;;;;;;;37.90;20.92;99518.22;4994438;28;889;-61
2022/07/15 09:15:28;;;;;;;;;;;;;;;37.49;21.30;99520.78;4994414;28;834;-61
2022/07/15 09:18:12;;;;;;;;;;;;;;;37.15;21.67;99515.88;4993815;28;883;-60
2022/07/15 09:20:39;;;;;;;;;;;;;;;36.90;21.35;99495.88;4994468;28;958;-61
2022/07/15 09:23:06;;;;;;;;;;;;;;;36.91;21.54;99503.13;4994378;28;911;-61
2022/07/15 09:25:33;;;;;;;;;;;;;;;36.91;22.02;99508.88;4994362;28;811;-60
2022/07/15 09:28:01;;;;;;;;;;;;;;;36.66;21.63;99504.03;4994291;28;835;-61
2022/07/15 09:36:22;;;;;;;;;;;;;;;35.81;23.05;99495.44;4953119;29;1197;-60
2022/07/15 09:38:56;;;;;;;;;;;;;;;35.69;22.96;99498.03;4953106;29;752;-61
2022/07/15 09:41:36;;;;;;;;;;;;;;;35.33;23.61;99498.47;4952156;29;1514;-60
2022/07/15 09:44:05;;;;;;;;;;;;;;;35.19;24.46;99483.63;4952065;29;856;-61
2022/07/15 09:58:42;;;;;;;;;;;;;;;34.24;25.27;99479.38;4951977;29;673;-60
2022/07/15 10:01:11;;;;;;;;;;;;;;;34.05;25.28;99476.88;4951924;29;1044;-60
2022/07/15 10:35:54;;;;;;;;;;;;;;;34.12;26.82;99464.69;5109542;27;1328;-67
2022/07/15 10:38:20;;;;;;;;;;;;;;;33.98;27.58;99458.38;5066823;28;1523;-66
2022/07/15 10:40:57;;;;;;;;;;;;;;;33.53;27.72;99457.78;5066738;28;902;-67
2022/07/15 10:43:42;;;;;;;;;;;;;;;33.20;28.36;99453.16;5066634;28;854;-67
2022/07/15 10:46:18;;;;;;;;;;;;;;;33.07;28.94;99463.44;5066599;28;1120;-65
2022/07/15 10:48:45;;;;;;;;;;;;;;;32.59;29.10;99451.66;5066764;28;767;-67
2022/07/15 10:51:13;;;;;;;;;;;;;;;33.24;28.58;99453.56;5066828;28;873;-67
2022/07/15 10:53:49;;;;;;;;;;;;;;;34.56;26.69;99444.28;5066719;28;1971;-67
2022/07/15 11:08:41;;;;;;;;;;;;;;;33.60;28.44;99452.66;5006657;28;1048;-68
2022/07/15 11:11:13;;;;;;;;;;;;;;;32.67;29.63;99445.97;5007249;28;1041;-68
2022/07/15 11:25:55;;;;;;;;;;;;;;;31.87;30.38;99450.22;5065993;28;629;-68
2022/07/15 11:31:23;;;;;;;;;;;;;;;33.60;28.99;99441.22;5065576;28;938;-69
2022/07/15 11:33:53;;;;;;;;;;;;;;;32.98;29.76;99446.81;5065319;28;1898;-69
2022/07/15 11:36:23;;;;;;;;;;;;;;;33.03;29.74;99448.75;5082360;28;1245;-67
2022/07/15 11:38:51;;;;;;;;;;;;;;;34.34;27.86;99440.16;5065849;28;874;-70
2022/07/15 11:46:49;;;;;;;;;;;;;;;36.59;25.06;99435.75;5093967;28;636;-69
2022/07/15 11:49:45;;;;;;;;;;;;;;;36.68;25.23;99443.75;5094527;28;838;-69
2022/07/15 11:52:22;;;;;;;;;;;;;;;36.92;24.82;99441.31;5085645;28;1266;-68
2022/07/15 11:54:50;;;;;;;;;;;;;;;36.82;24.35;99440.50;5094347;28;1893;-67
2022/07/15 11:57:18;;;;;;;;;;;;;;;36.95;24.87;99434.34;5094385;28;822;-70
2022/07/15 12:00:18;;;;;;;;;;;;;;;37.31;24.11;99442.28;5094247;28;889;-70
2022/07/15 12:02:45;;;;;;;;;;;;;;;37.15;23.69;99430.25;5092853;28;1228;-69
2022/07/15 12:05:11;;;;;;;;;;;;;;;37.08;24.23;99433.97;5092921;28;1181;-71
2022/07/15 12:07:45;;;;;;;;;;;;;;;37.28;24.32;99428.31;5094206;28;778;-70
2022/07/15 12:10:15;;;;;;;;;;;;;;;37.55;23.59;99428.25;5094139;28;826;-72
2022/07/15 12:24:54;;;;;;;;;;;;;;;39.13;22.24;99417.63;5094244;28;617;-69
2022/07/15 12:27:41;;;;;;;;;;;;;;;39.12;22.13;99410.34;5093828;28;873;-68
2022/07/15 12:30:09;;;;;;;;;;;;;;;39.19;22.21;99415.19;5093576;28;1065;-68
2022/07/15 12:32:39;;;;;;;;;;;;;;;39.19;22.24;99411.53;5093574;28;872;-71
2022/07/15 12:35:06;;;;;;;;;;;;;;;38.91;22.17;99408.13;5092026;28;1975;-74
2022/07/15 12:40:37;;;;;;;;;;;;;;;39.00;22.34;99418.16;5093606;28;695;-68
2022/07/15 12:43:03;;;;;;;;;;;;;;;38.87;22.57;99419.38;5093587;28;802;-70
2022/07/15 12:57:43;;;;;;;;;;;;;;;39.39;22.49;99415.88;5092634;28;608;-69
2022/07/15 13:00:16;;;;;;;;;;;;;;;39.27;22.06;99417.91;5093412;28;869;-68
2022/07/15 13:02:59;;;;;;;;;;;;;;;38.78;22.23;99420.16;5093289;28;857;-69
2022/07/15 13:05:40;;;;;;;;;;;;;;;38.65;22.69;99420.66;5093180;28;787;-67
2022/07/15 13:08:08;;;;;;;;;;;;;;;37.82;23.94;99422.44;5093061;28;865;-70
2022/07/15 13:10:35;;;;;;;;;;;;;;;35.73;25.47;99417.16;5092961;28;798;-70
2022/07/15 13:16:16;;;;;;;;;;;;;;;32.55;29.77;99423.41;5092902;28;608;-70
2022/07/15 13:18:54;;;;;;;;;;;;;;;32.48;29.69;99423.34;5091512;28;1332;-68
2022/07/15 13:21:20;;;;;;;;;;;;;;;34.20;28.46;99416.66;5092766;28;981;-71
2022/07/15 13:23:46;;;;;;;;;;;;;;;35.27;27.51;99418.28;5092780;28;802;-70
2022/07/15 13:26:14;;;;;;;;;;;;;;;34.57;28.43;99422.84;5092680;28;806;-69
2022/07/15 13:28:40;;;;;;;;;;;;;;;33.60;29.78;99427.63;5092650;28;873;-68
2022/07/15 13:31:07;;;;;;;;;;;;;;;33.15;29.88;99424.16;5091400;28;830;-68
2022/07/15 13:52:42;;;;;;;;;;;;;;;33.60;29.69;99430.50;5092182;28;699;-68
2022/07/15 13:55:10;;;;;;;;;;;;;;;33.54;29.37;99424.16;5092141;28;1910;-67
2022/07/15 13:57:36;;;;;;;;;;;;;;;33.73;29.53;99430.31;5092065;28;832;-69
2022/07/15 14:00:08;;;;;;;;;;;;;;;34.28;29.93;99417.41;5092082;28;818;-70
2022/07/15 14:02:37;;;;;;;;;;;;;;;34.37;28.51;99413.16;5092030;28;959;-67
2022/07/15 14:17:14;;;;;;;;;;;;;;;34.90;27.14;99420.78;5092238;28;596;-70
2022/07/15 14:20:01;;;;;;;;;;;;;;;34.58;26.92;99419.38;5091813;28;777;-67
2022/07/15 14:22:30;;;;;;;;;;;;;;;34.27;28.16;99415.13;5091687;28;864;-68
2022/07/15 14:24:57;;;;;;;;;;;;;;;34.16;27.81;99417.06;5091772;28;809;-67
2022/07/15 14:39:38;;;;;;;;;;;;;;;31.49;30.51;99429.94;5091927;28;788;-69
2022/07/15 14:45:07;;;;;;;;;;;;;;;30.96;31.82;99422.38;5090397;28;1268;-69
2022/07/15 14:47:33;;;;;;;;;;;;;;;30.80;31.54;99424.25;5091534;28;798;-69
2022/07/15 14:50:00;;;;;;;;;;;;;;;30.78;32.11;99420.44;5091519;28;805;-69
2022/07/15 14:52:27;;;;;;;;;;;;;;;30.89;32.36;99420.19;5090084;28;1459;-68
2022/07/15 14:54:53;;;;;;;;;;;;;;;31.12;32.00;99418.34;5091302;28;1905;-69
2022/07/15 14:57:20;;;;;;;;;;;;;;;31.49;30.62;99418.50;5091739;28;868;-68
2022/07/15 14:59:50;;;;;;;;;;;;;;;31.60;30.75;99421.09;5091421;28;845;-67
2022/07/15 15:02:17;;;;;;;;;;;;;;;31.74;30.64;99421.75;5091439;28;810;-68
2022/07/15 15:04:44;;;;;;;;;;;;;;;31.60;30.13;99423.16;5091392;28;822;-69
2022/07/15 15:07:11;;;;;;;;;;;;;;;31.44;30.46;99423.03;5091337;28;893;-68
2022/07/15 15:09:37;;;;;;;;;;;;;;;31.46;30.99;99420.41;5091378;28;802;-70
2022/07/15 15:12:04;;;;;;;;;;;;;;;31.23;30.57;99428.72;5091405;28;826;-68
2022/07/15 15:14:30;;;;;;;;;;;;;;;30.91;31.21;99417.56;5091227;28;1902;-67
2022/07/15 15:17:05;;;;;;;;;;;;;;;30.83;31.49;99423.16;5091307;28;994;-67
2022/07/15 15:19:32;;;;;;;;;;;;;;;30.74;31.86;99424.38;5091067;28;884;-67
2022/07/15 15:21:59;;;;;;;;;;;;;;;30.71;31.82;99425.50;5094749;28;809;-68
2022/07/15 15:24:41;;;;;;;;;;;;;;;30.75;31.48;99428.03;5095060;28;908;-68
2022/07/15 15:27:23;;;;;;;;;;;;;;;30.77;31.80;99433.16;5094918;28;870;-67
2022/07/15 15:29:54;;;;;;;;;;;;;;;30.82;31.62;99427.34;5095140;28;872;-68
2022/07/15 15:32:23;;;;;;;;;;;;;;;30.62;31.67;99431.69;5094783;28;857;-68
2022/07/15 15:34:50;;;;;;;;;;;;;;;30.31;31.88;99433.38;5094920;28;1881;-67
2022/07/15 15:37:16;;;;;;;;;;;;;;;30.20;32.82;99436.41;5094932;28;822;-68
2022/07/15 15:39:51;;;;;;;;;;;;;;;30.12;32.82;99436.31;5094765;28;807;-67
2022/07/15 15:42:31;;;;;;;;;;;;;;;30.11;32.95;99440.47;5094672;28;817;-67
2022/07/15 15:44:58;;;;;;;;;;;;;;;29.85;33.33;99444.06;5094478;28;1192;-69
2022/07/15 15:47:26;;;;;;;;;;;;;;;29.55;33.56;99433.69;5094605;28;873;-66
2022/07/15 15:49:52;;;;;;;;;;;;;;;29.32;33.62;99441.84;5094482;28;1055;-67
2022/07/15 15:52:19;;;;;;;;;;;;;;;29.11;34.25;99442.44;5094498;28;877;-67
2022/07/15 15:54:46;;;;;;;;;;;;;;;29.07;34.80;99441.19;5094339;28;1906;-68
2022/07/15 15:57:13;;;;;;;;;;;;;;;28.98;34.97;99444.44;5094838;28;973;-70
2022/07/15 15:59:40;;;;;;;;;;;;;;;29.01;35.41;99440.50;5094439;28;881;-68
2022/07/15 16:02:16;;;;;;;;;;;;;;;29.43;34.63;99441.66;5093063;28;1197;-68
2022/07/15 16:04:42;;;;;;;;;;;;;;;29.83;33.84;99444.63;5094374;28;810;-68
2022/07/15 16:07:08;;;;;;;;;;;;;;;30.11;33.26;99438.38;5094182;28;885;-67
2022/07/15 16:09:35;;;;;;;;;;;;;;;30.19;33.43;99444.19;5092899;28;1171;-68
2022/07/15 16:12:02;;;;;;;;;;;;;;;29.89;33.94;99448.16;5094191;28;841;-67
2022/07/15 16:14:28;;;;;;;;;;;;;;;29.27;35.34;99448.41;5093992;28;1939;-68
2022/07/15 16:16:55;;;;;;;;;;;;;;;28.60;36.83;99450.88;5094046;28;864;-68
2022/07/15 16:19:23;;;;;;;;;;;;;;;28.13;37.84;99456.84;5094127;28;798;-67
2022/07/15 16:24:45;;;;;;;;;;;;;;;27.54;38.91;99464.88;5051648;28;1251;-69
2022/07/15 16:27:25;;;;;;;;;;;;;;;27.32;39.71;99467.91;5051406;28;885;-68
2022/07/15 16:29:51;;;;;;;;;;;;;;;27.15;40.44;99465.94;5051471;28;950;-68
2022/07/15 16:32:18;;;;;;;;;;;;;;;27.03;41.03;99456.72;5051319;28;866;-67
2022/07/15 16:34:45;;;;;;;;;;;;;;;26.87;41.54;99460.44;5051332;28;1886;-68
2022/07/15 16:37:11;;;;;;;;;;;;;;;26.71;41.88;99466.97;5051487;28;774;-67
2022/07/15 16:43:06;;;;;;;;;;;;;;;26.35;42.93;99466.81;5051217;28;1097;-67
2022/07/15 16:45:37;;;;;;;;;;;;;;;26.14;43.12;99464.31;5050948;28;1371;-68
2022/07/15 16:48:05;;;;;;;;;;;;;;;26.02;43.47;99465.63;5051010;28;1069;-68
2022/07/15 16:50:33;;;;;;;;;;;;;;;25.90;43.75;99478.25;5050890;28;1317;-67
2022/07/15 16:52:59;;;;;;;;;;;;;;;25.79;43.37;99473.38;5050882;28;1488;-68
2022/07/15 16:55:29;;;;;;;;;;;;;;;25.64;43.76;99468.75;5050902;28;1906;-67
2022/07/15 16:57:56;;;;;;;;;;;;;;;25.48;44.00;99469.53;5050892;28;985;-68